Sultan, Canada
Current Conditions -  °F | °C
As of 7:00 PM on Saturday 25 Oct 2014 (Local Time) from CYLD Reporting Station
Rain Showers Rain Showers  
Wind Chill: 38°   Ceiling: 1600
Heat Index: 43°   Visibility: 15mi
Dew Point: 39°   Wind: 8mph
Humidity: 87%   Direction: 270°W
Pressure: 29.53"   Gusts: NA
Location:  47.58°N, 82.77°W
Report Text: CYLD 252300Z 27007KT 15SM -SHRA OVC016 06/04 A2953 RMK SC8CVCTV CLDS EMBD SLP012
Loading
Personal Weather Stations






























Interactive Weather Map
Tropical Storm Tracking
New forecast layout! Learn more

10-Day Weather Forecast

Advertisements
Track Severe Weather on mobile